createdAt,value
2022-12-11T00:06:16.685Z,100.7
2022-12-11T00:08:18.342Z,86.5
2022-12-11T00:12:24.159Z,98.9
2022-12-11T00:14:25.737Z,90.7
2022-12-11T00:16:30.104Z,111.5
2022-12-11T00:20:33.223Z,90.9
2022-12-11T00:22:37.504Z,85.9
2022-12-11T00:24:39.091Z,91.8
2022-12-11T00:26:40.700Z,92.1
2022-12-11T00:28:44.962Z,94.9
2022-12-11T00:30:46.564Z,102.6
2022-12-11T00:32:48.149Z,95.8
2022-12-11T00:34:52.421Z,89.9
2022-12-11T00:36:54.045Z,105.9
2022-12-11T00:38:55.622Z,93.9
2022-12-11T00:40:59.892Z,101.9
2022-12-11T00:43:01.503Z,100.2
2022-12-11T00:45:03.085Z,117.5
2022-12-11T00:47:07.376Z,113.8
2022-12-11T00:49:08.989Z,129.3
2022-12-11T00:51:10.554Z,112.2
2022-12-11T01:00:09.461Z,101.5
2022-12-11T01:06:16.954Z,117
2022-12-11T01:17:34.778Z,95.9
2022-12-11T01:19:36.353Z,137.6
2022-12-11T01:21:40.596Z,125.3
2022-12-11T01:23:42.198Z,121.5
2022-12-11T01:25:43.802Z,121.6
2022-12-11T01:31:51.259Z,112.4
2022-12-11T01:33:55.533Z,133.9
2022-12-11T01:35:57.151Z,113
2022-12-11T01:37:58.757Z,119
2022-12-11T01:40:03.021Z,110.9
2022-12-11T01:42:04.630Z,160.9
2022-12-11T01:44:06.223Z,139.8
2022-12-11T01:46:10.598Z,108.6
2022-12-11T01:48:12.117Z,137.5
2022-12-11T01:50:13.697Z,136.3
2022-12-11T01:55:21.451Z,129.7
2022-12-11T01:57:23.078Z,139.9
2022-12-11T01:59:24.644Z,110.8
2022-12-11T02:01:29.068Z,113.4
2022-12-11T02:03:30.525Z,121.7
2022-12-11T02:05:32.117Z,152.1
2022-12-11T02:07:36.428Z,148.3
2022-12-11T02:09:38.009Z,125
2022-12-11T02:11:39.613Z,114.8
2022-12-11T02:13:43.922Z,139
2022-12-11T02:19:51.410Z,155.7
2022-12-11T02:23:54.607Z,109.3
2022-12-11T02:25:58.892Z,131.9
2022-12-11T02:28:00.488Z,129
2022-12-11T02:30:02.156Z,132.7
2022-12-11T02:32:06.382Z,143.4
2022-12-11T02:34:07.992Z,127.7
2022-12-11T02:36:09.571Z,125.1
2022-12-11T02:38:13.930Z,140.9
2022-12-11T02:40:15.467Z,138.8
2022-12-11T02:42:17.104Z,128
2022-12-11T02:44:21.390Z,118.2
2022-12-11T02:46:22.998Z,118.1
2022-12-11T02:48:24.614Z,116.4
2022-12-11T02:50:28.876Z,131
2022-12-11T02:52:30.518Z,131.7
2022-12-11T02:54:32.104Z,135
2022-12-11T02:56:36.412Z,115.5
2022-12-11T02:58:38.010Z,124.7
2022-12-11T03:00:39.621Z,147
2022-12-11T03:02:43.931Z,151.3
2022-12-11T03:04:45.512Z,135.9
2022-12-11T03:06:47.086Z,146.2
2022-12-11T03:21:20.130Z,141.9
2022-12-11T03:23:21.738Z,136.1
2022-12-11T03:25:23.347Z,117.9
2022-12-11T03:27:27.629Z,165.9
2022-12-11T03:29:29.253Z,116.9
2022-12-11T03:33:35.148Z,130.7
2022-12-11T03:35:36.741Z,141
2022-12-11T03:37:38.328Z,145
2022-12-11T03:39:42.631Z,135.7
2022-12-11T03:41:44.237Z,131.9
2022-12-11T03:43:45.857Z,127.4
2022-12-11T03:45:50.186Z,125.7
2022-12-11T03:47:51.755Z,137.5
2022-12-11T03:49:53.381Z,133.6
2022-12-11T03:51:57.827Z,110
2022-12-11T03:53:59.290Z,140.6
2022-12-11T03:56:00.897Z,122.2
2022-12-11T03:58:05.154Z,126
2022-12-11T04:00:06.780Z,136.7
2022-12-11T04:02:08.426Z,151.7
2022-12-11T04:04:12.717Z,141.3
2022-12-11T04:06:14.312Z,128.1
2022-12-11T04:08:15.955Z,123.8
2022-12-11T04:10:20.211Z,115.8
2022-12-11T04:12:21.840Z,117.7
2022-12-11T04:14:23.454Z,116.5
2022-12-11T04:16:27.749Z,115.4
2022-12-11T04:18:29.360Z,109.3
2022-12-11T04:20:30.968Z,108.3
2022-12-11T04:22:35.272Z,98.2
2022-12-11T04:24:36.883Z,130.6
2022-12-11T04:26:38.467Z,114
2022-12-11T04:28:42.771Z,140.7
2022-12-11T04:30:44.455Z,137.8
2022-12-11T04:32:46.014Z,136.3
2022-12-11T04:34:50.323Z,122.6
2022-12-11T04:36:51.921Z,139.3
2022-12-11T04:38:53.527Z,132.2
2022-12-11T04:40:57.837Z,132.9
2022-12-11T04:45:01.033Z,112.9
2022-12-11T04:52:12.179Z,114.2
2022-12-11T04:54:13.789Z,109.6
2022-12-11T04:56:18.089Z,120.5
2022-12-11T04:58:19.716Z,131.6
2022-12-11T05:00:21.322Z,114.8
2022-12-11T05:09:34.690Z,120.4
2022-12-11T05:11:38.995Z,132.9
2022-12-11T05:17:46.482Z,117.3
2022-12-11T05:23:54.020Z,137.6
2022-12-11T05:25:55.649Z,136.3
2022-12-11T05:27:57.255Z,154.7
2022-12-11T05:30:01.574Z,131.6
2022-12-11T05:32:03.221Z,131.7
2022-12-11T05:34:04.803Z,124.1
2022-12-11T05:36:09.097Z,160.4
2022-12-11T05:38:10.765Z,142.2
2022-12-11T05:40:12.341Z,150.1
2022-12-11T05:49:11.347Z,143.5
2022-12-11T05:51:12.947Z,143.7
2022-12-11T05:53:14.559Z,132.7
2022-12-11T05:55:18.847Z,143.4
2022-12-11T05:57:20.457Z,141.4
2022-12-11T05:59:22.089Z,134.4
2022-12-11T06:01:26.370Z,145.2
2022-12-11T06:03:27.968Z,147.7
2022-12-11T06:05:29.572Z,137.5
2022-12-11T06:07:33.885Z,139.5
2022-12-11T06:09:35.501Z,138.4
2022-12-11T06:11:37.086Z,166
2022-12-11T06:13:41.393Z,153.4
2022-12-11T06:15:43.015Z,134.3
2022-12-11T06:17:44.651Z,142.3
2022-12-11T06:19:48.961Z,162.7
2022-12-11T06:21:50.580Z,149.4
2022-12-11T06:23:52.173Z,133.5
2022-12-11T06:25:56.492Z,146.5
2022-12-11T06:27:58.109Z,132.3
2022-12-11T06:29:59.702Z,141.2
2022-12-11T06:37:12.063Z,153.4
2022-12-11T06:39:13.660Z,155.7
2022-12-11T06:41:17.974Z,155.1
2022-12-11T06:43:19.588Z,133.6
2022-12-11T06:45:21.209Z,128.8
2022-12-11T06:47:25.521Z,140.4
2022-12-11T06:49:27.169Z,151.2
2022-12-11T06:51:28.766Z,130.9
2022-12-11T06:53:33.136Z,132.2
2022-12-11T06:55:34.728Z,132.3
2022-12-11T06:57:36.341Z,136.1
2022-12-11T06:59:40.661Z,149.9
2022-12-11T07:01:42.259Z,150.5
2022-12-11T07:03:43.903Z,121.9
2022-12-11T07:05:48.195Z,118.6
2022-12-11T07:07:49.861Z,130.5
2022-12-11T07:09:51.531Z,121.4
2022-12-11T07:11:55.739Z,110.4
2022-12-11T07:13:57.370Z,126.7
2022-12-11T07:15:59.035Z,122.1
2022-12-11T07:18:03.324Z,117
2022-12-11T07:20:04.942Z,127.6
2022-12-11T07:22:06.556Z,128
2022-12-11T07:24:10.860Z,132.5
2022-12-11T07:28:16.809Z,120.8
2022-12-11T07:30:18.395Z,126.3
2022-12-11T07:32:20.151Z,148.1
2022-12-11T07:34:21.637Z,138.8
2022-12-11T07:36:25.921Z,135.2
2022-12-11T07:38:27.553Z,113.9
2022-12-11T07:42:33.509Z,144.9
2022-12-11T07:44:35.117Z,130.9
2022-12-11T07:46:36.728Z,125.7
2022-12-11T07:48:41.030Z,128.6
2022-12-11T07:52:44.254Z,127.3
2022-12-11T07:56:53.676Z,149.9
2022-12-11T08:02:57.713Z,139.2
2022-12-11T08:04:59.332Z,118.9
2022-12-11T08:07:03.623Z,128.3
2022-12-11T08:11:06.869Z,143.6
2022-12-11T08:13:11.168Z,155.1
2022-12-11T08:15:13.171Z,132.4
2022-12-11T08:17:14.422Z,139
2022-12-11T08:19:18.714Z,123.8
2022-12-11T08:21:20.273Z,143.6
2022-12-11T08:23:21.913Z,123.4
2022-12-11T08:27:27.839Z,99.8
2022-12-11T08:29:29.457Z,90.9
2022-12-11T08:37:41.293Z,118
2022-12-11T08:39:42.917Z,124.2
2022-12-11T08:43:48.844Z,104.6
2022-12-11T08:45:50.497Z,115.5
2022-12-11T08:51:58.008Z,98.9
2022-12-11T08:53:59.644Z,116
2022-12-11T09:05:12.273Z,110.7
2022-12-11T09:07:13.466Z,111.4
2022-12-11T09:13:21.039Z,109.6
2022-12-11T09:17:26.908Z,101.1
2022-12-11T09:19:32.219Z,96.8
2022-12-11T09:21:30.176Z,80.6
2022-12-11T09:27:37.696Z,85
2022-12-11T09:29:42.016Z,72.7
2022-12-11T09:31:43.606Z,79.1
2022-12-11T09:35:49.528Z,76.3
2022-12-11T09:39:52.792Z,67.1
2022-12-11T09:41:57.093Z,70.2
2022-12-11T09:43:58.698Z,75
2022-12-11T09:46:00.351Z,79.1
2022-12-11T09:48:04.602Z,59.2
2022-12-11T09:50:06.246Z,61.6
2022-12-11T09:54:12.137Z,76.9
2022-12-11T09:56:13.774Z,68.8
2022-12-11T10:00:19.972Z,59.6
2022-12-11T10:02:21.374Z,50.6
2022-12-11T10:06:27.230Z,47.9
2022-12-11T10:08:28.947Z,52.4
2022-12-11T10:10:30.488Z,55.3
2022-12-11T10:18:45.173Z,48.8
2022-12-11T10:20:46.775Z,47.1
2022-12-11T10:30:01.860Z,45.1
2022-12-11T10:32:06.135Z,52.3
2022-12-11T10:34:07.783Z,47.2
2022-12-11T10:36:09.380Z,50.6
2022-12-11T10:44:21.230Z,50.6
2022-12-11T10:50:28.828Z,49
2022-12-11T10:52:30.466Z,40.8
2022-12-11T11:00:39.654Z,37
2022-12-11T11:05:49.117Z,40.9
2022-12-11T11:07:44.818Z,38.5
2022-12-11T11:09:46.345Z,34.1
2022-12-11T11:11:50.631Z,34.3
2022-12-11T11:15:53.998Z,33
2022-12-11T11:17:58.221Z,36.6
2022-12-11T11:19:59.838Z,36.4
2022-12-11T11:22:01.475Z,34.5
2022-12-11T11:24:05.815Z,33.4
2022-12-11T11:26:07.436Z,32.4
2022-12-11T11:28:09.076Z,30.1
2022-12-11T11:30:13.452Z,25
2022-12-11T11:32:15.032Z,29
2022-12-11T11:34:16.686Z,29.1
2022-12-11T11:36:20.999Z,27.3
2022-12-11T11:38:22.635Z,19.4
2022-12-11T11:40:24.277Z,26
2022-12-11T11:47:36.722Z,25.9
2022-12-11T11:49:38.342Z,36.2
2022-12-11T12:01:19.351Z,25.6
2022-12-11T12:03:21.002Z,21.9
2022-12-11T12:05:22.638Z,21.3
2022-12-11T12:12:32.425Z,30
2022-12-11T12:14:51.626Z,25.5
2022-12-11T12:16:52.863Z,25.9
2022-12-11T12:18:36.120Z,20
2022-12-11T12:20:37.792Z,23
2022-12-11T12:31:38.653Z,26.4
2022-12-11T12:35:44.576Z,28
2022-12-11T12:37:46.232Z,22.7
2022-12-11T12:39:47.848Z,29.6
2022-12-11T12:41:52.195Z,24.6
2022-12-11T12:43:53.945Z,26.1
2022-12-11T12:45:55.541Z,33
2022-12-11T12:47:59.918Z,27.5
2022-12-11T12:50:01.475Z,23.2
2022-12-11T12:52:03.116Z,21.7
2022-12-11T13:01:02.373Z,20.9
2022-12-11T13:03:03.940Z,28
2022-12-11T13:05:05.624Z,19.9
2022-12-11T13:07:09.943Z,33.5
2022-12-11T13:13:17.580Z,23.1
2022-12-11T13:15:19.240Z,34.1
2022-12-11T13:23:28.500Z,26.6
2022-12-11T13:31:40.576Z,31.5
2022-12-11T13:33:42.156Z,24.1
2022-12-11T13:35:43.777Z,27.1
2022-12-11T13:37:48.113Z,45.5
2022-12-11T13:41:51.410Z,33
2022-12-11T13:43:55.760Z,28.4
2022-12-11T13:45:57.442Z,28.4
2022-12-11T13:47:59.069Z,31.7
2022-12-11T13:50:03.431Z,26.5
2022-12-11T13:52:05.051Z,28.7
2022-12-11T13:54:06.701Z,25.1
2022-12-11T13:56:11.027Z,27.7
2022-12-11T14:02:18.742Z,31.1
2022-12-11T14:04:20.319Z,32.3
2022-12-11T14:06:21.997Z,37.2
2022-12-11T14:10:27.959Z,36.4
2022-12-11T14:12:29.600Z,29
2022-12-11T14:14:33.934Z,34.8
2022-12-11T14:16:35.671Z,33.6
2022-12-11T14:18:37.238Z,31.1
2022-12-11T14:20:41.568Z,37.2
2022-12-11T14:22:43.205Z,29.1
2022-12-11T14:24:44.853Z,29.4
2022-12-11T14:26:49.171Z,30.1
2022-12-11T14:28:50.880Z,25.3
2022-12-11T14:30:52.496Z,29.5
2022-12-11T14:39:51.625Z,26.8
2022-12-11T14:41:53.263Z,32
2022-12-11T14:43:54.875Z,34.2
2022-12-11T14:45:59.257Z,32.9
2022-12-11T14:48:00.853Z,35.4
2022-12-11T14:50:02.430Z,27.6
2022-12-11T14:52:06.736Z,35.1
2022-12-11T14:54:08.375Z,30.8
2022-12-11T14:56:10.034Z,23.3
2022-12-11T14:58:14.316Z,37
2022-12-11T15:00:15.947Z,40.3
2022-12-11T15:02:17.716Z,36
2022-12-11T15:04:21.898Z,45.2
2022-12-11T15:06:23.560Z,29.2
2022-12-11T15:08:25.262Z,41.7
2022-12-11T15:10:29.496Z,35.4
2022-12-11T15:12:31.136Z,37
2022-12-11T15:14:32.744Z,49.3
2022-12-11T15:16:37.093Z,33.7
2022-12-11T15:20:40.319Z,38.1
2022-12-11T15:22:44.653Z,43.6
2022-12-11T15:24:46.288Z,40.7
2022-12-11T15:26:47.940Z,42.4
2022-12-11T15:28:52.205Z,37.7
2022-12-11T15:30:53.864Z,35.7
2022-12-11T15:32:55.476Z,33.5
2022-12-11T15:34:59.831Z,40.6
2022-12-11T15:37:01.435Z,41.3
2022-12-11T15:39:03.057Z,37.1
2022-12-11T15:43:09.000Z,37.1
2022-12-11T15:45:10.847Z,28.8
2022-12-11T15:47:14.916Z,41.4
2022-12-11T15:49:16.537Z,35.8
2022-12-11T15:53:22.496Z,36.3
2022-12-11T15:55:24.121Z,39.3
2022-12-11T15:57:25.741Z,37.2
2022-12-11T15:59:30.052Z,35
2022-12-11T16:01:31.724Z,27.4
2022-12-11T16:03:33.348Z,31.1
2022-12-11T16:05:37.666Z,33.2
2022-12-11T16:07:39.317Z,34.4
2022-12-11T16:09:40.925Z,29
2022-12-11T16:11:45.245Z,38.4
2022-12-11T16:13:46.905Z,31.8
2022-12-11T16:15:48.641Z,38
2022-12-11T16:17:52.863Z,32
2022-12-11T16:21:56.155Z,39.3
2022-12-11T16:27:03.457Z,24.8
2022-12-11T16:29:05.124Z,33.5
2022-12-11T16:31:06.851Z,43.9
2022-12-11T16:33:13.175Z,32.8
2022-12-11T16:35:13.123Z,33.4
2022-12-11T16:37:14.376Z,39
2022-12-11T16:39:18.679Z,37.4
2022-12-11T16:41:20.353Z,33.5
2022-12-11T16:43:22.002Z,37.5
2022-12-11T16:45:26.381Z,42.4
2022-12-11T16:47:27.932Z,37.3
2022-12-11T16:49:29.575Z,31.5
2022-12-11T16:51:33.901Z,30.6
2022-12-11T16:53:35.530Z,31.3
2022-12-11T16:55:37.163Z,35.1
2022-12-11T17:04:36.265Z,28.7
2022-12-11T17:08:39.571Z,33.2
2022-12-11T17:10:43.854Z,32.8
2022-12-11T17:12:45.518Z,35.4
2022-12-11T17:14:47.112Z,39.6
2022-12-11T17:16:51.445Z,43
2022-12-11T17:18:53.093Z,34.2
2022-12-11T17:25:00.653Z,31.7
2022-12-11T17:27:02.264Z,35.4
2022-12-11T17:33:09.864Z,33.9
2022-12-11T17:40:22.295Z,34
2022-12-11T17:42:23.894Z,39.9
2022-12-11T17:46:29.922Z,32.9
2022-12-11T17:48:31.465Z,38.4
2022-12-11T17:50:35.773Z,38.1
2022-12-11T17:52:44.021Z,40.6
2022-12-11T17:54:40.656Z,33.9
2022-12-11T18:09:47.257Z,39.5
2022-12-11T18:11:48.861Z,43.2
2022-12-11T18:13:50.507Z,33.9
2022-12-11T18:15:54.844Z,41.6
2022-12-11T18:19:58.044Z,36.7
2022-12-11T18:22:02.350Z,40.2
2022-12-11T18:24:03.970Z,38.9
2022-12-11T18:28:09.850Z,39.8
2022-12-11T18:30:11.476Z,36.3
2022-12-11T18:32:13.079Z,33.6
2022-12-11T18:34:17.400Z,34.3
2022-12-11T18:36:19.014Z,45.1
2022-12-11T18:38:20.594Z,39.5
2022-12-11T18:40:24.902Z,45.2
2022-12-11T18:42:33.407Z,33.9
2022-12-11T18:44:28.160Z,39.4
2022-12-11T19:01:36.371Z,36
2022-12-11T19:03:37.946Z,36.3
2022-12-11T19:05:42.223Z,35.7
2022-12-11T19:07:43.845Z,28.4
2022-12-11T19:09:48.294Z,41.9
2022-12-11T19:11:49.744Z,45.6
2022-12-11T19:13:51.383Z,35.1
2022-12-11T19:15:53.075Z,39.4
2022-12-11T19:21:09.004Z,30.4
2022-12-11T19:23:07.900Z,37.7
2022-12-11T19:25:09.871Z,40.6
2022-12-11T19:29:15.429Z,42
2022-12-11T19:31:17.115Z,31.8
2022-12-11T19:33:21.353Z,33.6
2022-12-11T19:35:22.971Z,40.4
2022-12-11T19:37:24.609Z,35.1
2022-12-11T19:39:28.895Z,45.8
2022-12-11T19:43:32.153Z,34.4
2022-12-11T19:47:38.027Z,40.4
2022-12-11T19:49:39.646Z,34.1
2022-12-11T19:53:45.606Z,41
2022-12-11T19:55:47.201Z,39.5
2022-12-11T20:06:47.761Z,32.8
2022-12-11T20:13:55.671Z,30.9
2022-12-11T20:17:58.875Z,40.2
2022-12-11T20:20:03.240Z,37.2
2022-12-11T20:24:06.415Z,34.4
2022-12-11T20:26:10.722Z,53.9
2022-12-11T20:28:12.347Z,32.3
2022-12-11T20:30:13.944Z,37.1
2022-12-11T20:32:18.248Z,34.3
2022-12-11T20:34:19.866Z,47.5
2022-12-11T20:36:21.460Z,42.2
2022-12-11T20:38:28.775Z,33.5
2022-12-11T20:40:27.402Z,47
2022-12-11T20:42:28.978Z,38
2022-12-11T20:44:33.284Z,41.5
2022-12-11T20:46:34.888Z,41.5
2022-12-11T20:48:36.504Z,52.3
2022-12-11T20:50:40.783Z,41.5
2022-12-11T20:52:42.370Z,44.7
2022-12-11T20:54:43.988Z,42.6
2022-12-11T20:56:48.284Z,37.7
2022-12-11T20:58:49.900Z,40.2
2022-12-11T21:00:51.564Z,39.4
2022-12-11T21:14:48.386Z,42.2
2022-12-11T21:16:50.033Z,39.3
2022-12-11T21:18:54.249Z,42.6
2022-12-11T21:27:03.363Z,43.9
2022-12-11T21:29:04.932Z,43.7
2022-12-11T21:31:09.225Z,41.4
2022-12-11T21:33:10.826Z,46.4
2022-12-11T21:35:12.831Z,35.7
2022-12-11T21:37:16.737Z,37.5
2022-12-11T21:39:18.340Z,40.2
2022-12-11T21:41:19.942Z,42.4
2022-12-11T21:53:08.998Z,33.2
2022-12-11T21:55:11.089Z,39.8
2022-12-11T21:57:12.179Z,44.6
2022-12-11T22:12:18.606Z,51.2
2022-12-11T22:14:20.211Z,59.7
2022-12-11T22:16:21.868Z,49.4
2022-12-11T22:20:27.695Z,46.5
2022-12-11T22:22:29.309Z,44.4
2022-12-11T22:24:33.591Z,40.1
2022-12-11T22:26:35.180Z,52.3
2022-12-11T22:28:36.796Z,40.2
2022-12-11T22:30:41.149Z,32.7
2022-12-11T22:36:48.550Z,35.8
2022-12-11T22:38:50.161Z,36.7
2022-12-11T22:40:51.766Z,41.4
2022-12-11T22:42:56.065Z,33.9
2022-12-11T22:44:57.664Z,36.9
2022-12-11T22:46:59.247Z,36.8
2022-12-11T22:49:03.546Z,41.4
2022-12-11T22:51:05.141Z,44
2022-12-11T22:53:06.742Z,37.1
2022-12-11T22:55:11.341Z,38
2022-12-11T22:57:12.621Z,47.2
2022-12-11T22:59:14.212Z,47.3
2022-12-11T23:01:18.507Z,36.3
2022-12-11T23:03:20.210Z,39.9
2022-12-11T23:05:21.706Z,53.1
2022-12-11T23:07:26.019Z,45.3
2022-12-11T23:09:27.570Z,37.6
2022-12-11T23:11:29.199Z,39.1
2022-12-11T23:13:33.487Z,31.9
2022-12-11T23:15:35.080Z,40
2022-12-11T23:17:36.686Z,38.5
2022-12-11T23:19:40.969Z,40.3
2022-12-11T23:21:42.606Z,37.5
2022-12-11T23:23:44.180Z,46.4
2022-12-11T23:25:48.463Z,38.4
2022-12-11T23:27:50.100Z,34.6
2022-12-11T23:29:51.705Z,33.9
2022-12-11T23:31:55.977Z,31
2022-12-11T23:33:57.575Z,33.6
2022-12-11T23:35:59.168Z,34.4
2022-12-11T23:38:03.520Z,33.2
2022-12-11T23:40:05.100Z,34.8
2022-12-11T23:48:14.205Z,34.2
2022-12-11T23:50:18.493Z,28.3
2022-12-11T23:52:20.088Z,34.5
2022-12-11T23:54:21.664Z,34.9
2022-12-11T23:58:27.583Z,41.7
